createdAt,value
2019-04-11T00:01:46.890Z,9.20
2019-04-11T00:04:11.994Z,9.30
2019-04-11T00:06:41.444Z,9.20
2019-04-11T00:09:14.504Z,9.20
2019-04-11T00:11:44.258Z,9.10
2019-04-11T00:14:13.939Z,9.10
2019-04-11T00:16:43.543Z,9.10
2019-04-11T00:19:13.682Z,9.10
2019-04-11T00:21:43.166Z,9.10
2019-04-11T00:24:12.465Z,9.20
2019-04-11T00:26:41.516Z,9.20
2019-04-11T00:29:10.875Z,9.30
2019-04-11T00:31:41.094Z,9.20
2019-04-11T00:34:10.939Z,9.20
2019-04-11T00:36:40.812Z,9.20
2019-04-11T00:39:13.202Z,9.20
2019-04-11T00:41:42.947Z,9.10
2019-04-11T00:44:11.942Z,9.00
2019-04-11T00:46:40.882Z,8.90
2019-04-11T00:49:10.540Z,8.90
2019-04-11T00:51:40.209Z,8.90
2019-04-11T00:54:09.443Z,8.80
2019-04-11T00:56:38.574Z,8.80
2019-04-11T00:59:07.952Z,8.80
2019-04-11T01:01:37.373Z,8.80
2019-04-11T01:04:07.480Z,8.70
2019-04-11T01:06:36.607Z,8.70
2019-04-11T01:09:06.865Z,8.70
2019-04-11T01:11:37.631Z,8.70
2019-04-11T01:14:07.852Z,8.80
2019-04-11T01:16:48.591Z,8.80
2019-04-11T01:19:18.453Z,8.80
2019-04-11T01:21:48.535Z,8.80
2019-04-11T01:24:18.129Z,8.80
2019-04-11T01:26:47.624Z,8.70
2019-04-11T01:29:17.550Z,8.70
2019-04-11T01:31:49.688Z,8.70
2019-04-11T01:34:18.666Z,8.60
2019-04-11T01:36:47.682Z,8.60
2019-04-11T01:39:39.118Z,8.60
2019-04-11T01:42:09.118Z,8.60
2019-04-11T01:44:38.940Z,8.60
2019-04-11T01:47:10.769Z,8.60
2019-04-11T01:49:40.669Z,8.60
2019-04-11T01:52:09.890Z,8.60
2019-04-11T01:54:39.589Z,8.50
2019-04-11T01:57:09.660Z,8.50
2019-04-11T01:59:39.573Z,8.40
2019-04-11T02:02:36.872Z,8.30
2019-04-11T02:05:16.738Z,8.40
2019-04-11T02:07:46.909Z,8.30
2019-04-11T02:10:16.884Z,8.40
2019-04-11T02:12:46.153Z,8.30
2019-04-11T02:15:16.479Z,8.30
2019-04-11T02:17:48.803Z,8.40
2019-04-11T02:20:18.170Z,8.30
2019-04-11T02:22:59.047Z,8.40
2019-04-11T02:25:33.714Z,8.40
2019-04-11T02:28:04.372Z,8.40
2019-04-11T02:30:36.255Z,8.30
2019-04-11T02:33:07.230Z,8.30
2019-04-11T02:35:37.383Z,8.30
2019-04-11T02:38:07.624Z,8.30
2019-04-11T02:40:38.726Z,8.30
2019-04-11T02:43:09.822Z,8.20
2019-04-11T02:45:50.888Z,8.20
2019-04-11T02:48:13.230Z,8.20
2019-04-11T02:50:43.095Z,8.20
2019-04-11T02:53:12.583Z,8.20
2019-04-11T02:55:43.778Z,8.20
2019-04-11T02:58:14.406Z,8.10
2019-04-11T03:00:45.086Z,8.10
2019-04-11T03:03:14.995Z,8.10
2019-04-11T03:05:46.302Z,8.10
2019-04-11T03:08:18.909Z,8.00
2019-04-11T03:10:46.649Z,8.10
2019-04-11T03:13:16.801Z,8.10
2019-04-11T03:15:59.382Z,8.10
2019-04-11T03:18:39.204Z,8.10
2019-04-11T03:20:53.167Z,8.00
2019-04-11T03:23:20.594Z,8.00
2019-04-11T03:25:49.325Z,8.00
2019-04-11T03:28:23.135Z,8.00
2019-04-11T03:31:13.224Z,8.00
2019-04-11T03:36:36.453Z,7.90
2019-04-11T03:38:42.667Z,7.90
2019-04-11T03:41:10.319Z,7.90
2019-04-11T03:43:36.618Z,7.90
2019-04-11T03:46:14.312Z,7.90
2019-04-11T03:48:40.553Z,7.90
2019-04-11T03:50:59.537Z,7.90
2019-04-11T03:53:30.073Z,7.90
2019-04-11T03:56:01.630Z,7.80
2019-04-11T03:58:32.797Z,7.80
2019-04-11T04:01:05.542Z,7.80
2019-04-11T04:03:34.183Z,7.80
2019-04-11T04:06:04.518Z,7.70
2019-04-11T04:08:34.225Z,7.70
2019-04-11T04:11:08.624Z,7.60
2019-04-11T04:13:42.708Z,7.60
2019-04-11T04:16:40.828Z,7.60
2019-04-11T04:19:25.157Z,7.60
2019-04-11T04:22:00.081Z,7.60
2019-04-11T04:24:34.828Z,7.40
2019-04-11T04:27:04.686Z,7.30
2019-04-11T04:29:36.260Z,7.40
2019-04-11T04:32:05.435Z,7.20
2019-04-11T04:34:36.482Z,7.20
2019-04-11T04:37:07.472Z,7.20
2019-04-11T04:39:37.694Z,7.10
2019-04-11T04:42:17.171Z,8.30
2019-04-11T04:44:40.390Z,7.20
2019-04-11T04:47:16.471Z,7.30
2019-04-11T04:49:41.010Z,7.30
2019-04-11T04:52:14.067Z,7.30
2019-04-11T04:54:46.382Z,7.30
2019-04-11T04:57:15.840Z,7.30
2019-04-11T04:59:44.935Z,7.30
2019-04-11T05:02:14.968Z,7.40
2019-04-11T05:04:45.891Z,7.40
2019-04-11T05:07:15.244Z,7.50
2019-04-11T05:09:45.931Z,7.50
2019-04-11T05:12:16.282Z,7.50
2019-04-11T05:14:45.599Z,7.60
2019-04-11T05:17:14.940Z,7.70
2019-04-11T05:19:44.605Z,7.80
2019-04-11T05:22:14.679Z,7.90
2019-04-11T05:24:43.658Z,8.00
2019-04-11T05:27:12.619Z,8.20
2019-04-11T05:29:41.777Z,8.60
2019-04-11T05:32:11.353Z,8.90
2019-04-11T05:34:41.426Z,9.10
2019-04-11T05:37:11.063Z,9.30
2019-04-11T05:39:41.376Z,9.80
2019-04-11T05:42:15.994Z,10.10
2019-04-11T05:44:43.191Z,10.40
2019-04-11T05:47:18.176Z,10.50
2019-04-11T05:50:10.105Z,10.10
2019-04-11T05:52:37.127Z,10.00
2019-04-11T05:55:11.477Z,9.80
2019-04-11T05:57:42.943Z,9.80
2019-04-11T06:00:19.397Z,9.80
2019-04-11T06:02:53.686Z,10.20
2019-04-11T06:05:31.911Z,11.40
2019-04-11T06:08:05.122Z,12.20
2019-04-11T06:10:43.957Z,13.30
2019-04-11T06:13:19.007Z,14.30
2019-04-11T06:15:51.378Z,15.00
2019-04-11T06:18:42.290Z,15.20
2019-04-11T06:21:24.343Z,14.60
2019-04-11T06:24:12.530Z,14.40
2019-04-11T06:26:59.340Z,14.90
2019-04-11T06:29:34.869Z,15.10
2019-04-11T06:32:17.948Z,14.20
2019-04-11T06:34:52.565Z,13.80
2019-04-11T06:37:39.661Z,14.70
2019-04-11T06:40:31.081Z,15.80
2019-04-11T06:43:06.169Z,16.20
2019-04-11T06:46:00.763Z,16.00
2019-04-11T06:48:35.881Z,15.60
2019-04-11T06:51:19.917Z,15.80
2019-04-11T06:54:08.500Z,16.50
2019-04-11T06:56:45.566Z,17.30
2019-04-11T06:59:18.495Z,18.60
2019-04-11T07:01:47.713Z,18.80
2019-04-11T07:04:23.174Z,18.70
2019-04-11T07:07:00.605Z,18.10
2019-04-11T07:09:57.675Z,17.20
2019-04-11T07:12:43.818Z,16.40
2019-04-11T07:15:16.102Z,15.60
2019-04-11T07:18:09.853Z,15.10
2019-04-11T07:21:35.434Z,14.70
2019-04-11T07:24:25.420Z,14.40
2019-04-11T07:27:11.970Z,13.70
2019-04-11T07:29:59.719Z,13.70
2019-04-11T07:32:34.609Z,13.80
2019-04-11T07:35:32.180Z,13.60
2019-04-11T07:38:02.884Z,13.70
2019-04-11T07:40:54.516Z,13.60
2019-04-11T07:43:26.899Z,14.30
2019-04-11T07:46:25.466Z,14.50
2019-04-11T07:49:08.328Z,14.50
2019-04-11T07:51:50.675Z,15.00
2019-04-11T07:54:22.333Z,15.60
2019-04-11T07:56:58.689Z,16.50
2019-04-11T07:59:46.489Z,17.30
2019-04-11T08:02:53.291Z,18.00
2019-04-11T08:05:47.450Z,17.90
2019-04-11T08:08:51.410Z,17.20
2019-04-11T08:11:35.808Z,17.40
2019-04-11T08:14:22.895Z,17.60
2019-04-11T08:17:11.488Z,18.40
2019-04-11T08:19:59.608Z,19.40
2019-04-11T08:22:32.930Z,20.70
2019-04-11T08:25:21.017Z,21.70
2019-04-11T08:28:01.315Z,22.10
2019-04-11T08:30:37.058Z,22.80
2019-04-11T08:33:07.386Z,22.90
2019-04-11T08:35:57.142Z,22.50
2019-04-11T08:38:32.188Z,21.80
2019-04-11T08:41:27.444Z,20.60
2019-04-11T08:43:56.939Z,19.10
2019-04-11T08:46:40.158Z,17.70
2019-04-11T08:49:15.323Z,16.60
2019-04-11T08:51:45.274Z,15.30
2019-04-11T08:54:29.267Z,14.80
2019-04-11T08:56:59.119Z,14.80
2019-04-11T08:59:47.719Z,15.00
2019-04-11T09:02:31.113Z,14.70
2019-04-11T09:05:20.330Z,14.50
2019-04-11T09:08:08.477Z,14.30
2019-04-11T09:11:10.702Z,14.30
2019-04-11T09:13:49.460Z,14.20
2019-04-11T09:16:37.463Z,14.20
2019-04-11T09:19:14.606Z,14.00
2019-04-11T09:22:02.620Z,14.20
2019-04-11T09:24:53.460Z,14.40
2019-04-11T09:27:40.584Z,14.40
2019-04-11T09:30:17.136Z,14.30
2019-04-11T09:33:06.816Z,14.40
2019-04-11T09:35:37.623Z,13.90
2019-04-11T09:38:06.660Z,13.80
2019-04-11T09:40:52.138Z,13.90
2019-04-11T09:43:24.160Z,14.10
2019-04-11T09:46:22.494Z,14.40
2019-04-11T09:49:12.364Z,14.50
2019-04-11T09:52:07.334Z,14.40
2019-04-11T09:54:53.206Z,14.80
2019-04-11T09:57:29.730Z,15.00
2019-04-11T10:00:27.402Z,15.50
2019-04-11T10:03:01.734Z,15.80
2019-04-11T10:05:50.307Z,15.60
2019-04-11T10:08:45.173Z,15.40
2019-04-11T10:11:34.404Z,14.90
2019-04-11T10:14:15.611Z,14.70
2019-04-11T10:17:02.420Z,14.70
2019-04-11T10:19:46.521Z,14.70
2019-04-11T10:22:34.688Z,14.50
2019-04-11T10:25:35.314Z,14.60
2019-04-11T10:28:17.413Z,14.50
2019-04-11T10:31:08.484Z,14.40
2019-04-11T10:33:57.358Z,14.20
2019-04-11T10:36:39.621Z,14.50
2019-04-11T10:39:33.257Z,14.30
2019-04-11T10:42:06.349Z,14.50
2019-04-11T10:44:54.187Z,14.70
2019-04-11T10:47:25.080Z,14.80
2019-04-11T10:50:17.414Z,14.90
2019-04-11T10:52:55.866Z,14.90
2019-04-11T10:56:00.052Z,15.00
2019-04-11T10:58:44.784Z,14.90
2019-04-11T11:01:40.131Z,14.70
2019-04-11T11:04:19.871Z,14.70
2019-04-11T11:06:52.361Z,14.70
2019-04-11T11:09:32.338Z,14.50
2019-04-11T11:12:21.070Z,14.60
2019-04-11T11:15:09.419Z,14.60
2019-04-11T11:18:32.091Z,14.70
2019-04-11T11:20:45.547Z,15.10
2019-04-11T11:23:26.893Z,15.30
2019-04-11T11:26:19.850Z,15.40
2019-04-11T11:29:19.232Z,15.70
2019-04-11T11:32:09.198Z,15.50
2019-04-11T11:34:43.019Z,15.00
2019-04-11T11:37:37.466Z,15.10
2019-04-11T11:40:27.875Z,15.10
2019-04-11T11:43:06.542Z,15.10
2019-04-11T11:46:01.428Z,15.30
2019-04-11T11:48:41.826Z,15.40
2019-04-11T11:51:28.238Z,15.40
2019-04-11T11:54:31.309Z,15.30
2019-04-11T11:57:04.599Z,15.10
2019-04-11T11:59:43.003Z,15.20
2019-04-11T12:02:38.857Z,15.30
2019-04-11T12:05:16.388Z,15.50
2019-04-11T12:08:20.326Z,15.40
2019-04-11T12:10:51.922Z,15.40
2019-04-11T12:13:45.831Z,15.30
2019-04-11T12:16:32.074Z,15.30
2019-04-11T12:19:24.745Z,15.40
2019-04-11T12:21:55.880Z,15.70
2019-04-11T12:24:44.915Z,15.80
2019-04-11T12:27:45.835Z,15.30
2019-04-11T12:30:29.142Z,15.50
2019-04-11T12:33:01.439Z,15.40
2019-04-11T12:35:53.416Z,15.60
2019-04-11T12:38:50.435Z,15.40
2019-04-11T12:41:33.046Z,15.60
2019-04-11T12:44:19.927Z,15.80
2019-04-11T12:47:17.352Z,15.80
2019-04-11T12:50:05.029Z,15.90
2019-04-11T12:52:39.893Z,15.60
2019-04-11T12:55:12.383Z,15.30
2019-04-11T12:58:00.606Z,15.20
2019-04-11T13:00:47.369Z,15.40
2019-04-11T13:03:47.334Z,15.40
2019-04-11T13:06:35.956Z,15.40
2019-04-11T13:09:24.896Z,15.50
2019-04-11T13:11:54.452Z,15.50
2019-04-11T13:14:39.124Z,15.50
2019-04-11T13:17:09.813Z,15.50
2019-04-11T13:20:05.025Z,15.40
2019-04-11T13:22:34.620Z,15.40
2019-04-11T13:25:38.372Z,15.10
2019-04-11T13:28:07.728Z,15.40
2019-04-11T13:30:54.533Z,15.10
2019-04-11T13:33:25.802Z,15.00
2019-04-11T13:36:12.822Z,15.10
2019-04-11T13:38:43.586Z,15.20
2019-04-11T13:41:30.917Z,15.10
2019-04-11T13:44:09.740Z,15.40
2019-04-11T13:46:57.349Z,15.60
2019-04-11T13:49:45.295Z,15.70
2019-04-11T13:52:26.936Z,15.90
2019-04-11T13:55:10.565Z,15.50
2019-04-11T13:57:58.760Z,15.30
2019-04-11T14:00:38.680Z,15.10
2019-04-11T14:03:25.795Z,15.00
2019-04-11T14:05:56.121Z,15.10
2019-04-11T14:08:29.657Z,15.30
2019-04-11T14:11:06.405Z,15.50
2019-04-11T14:13:39.360Z,15.10
2019-04-11T14:16:14.098Z,15.20
2019-04-11T14:19:17.536Z,15.10
2019-04-11T14:21:48.001Z,15.30
2019-04-11T14:24:45.008Z,15.40
2019-04-11T14:27:21.636Z,14.90
2019-04-11T14:30:03.460Z,14.90
2019-04-11T14:32:33.573Z,15.10
2019-04-11T14:35:20.770Z,15.30
2019-04-11T14:37:54.510Z,15.50
2019-04-11T14:40:41.625Z,15.70
2019-04-11T14:43:24.231Z,15.60
2019-04-11T14:46:24.414Z,15.40
2019-04-11T14:48:58.522Z,15.40
2019-04-11T14:51:55.203Z,15.40
2019-04-11T14:54:28.389Z,15.10
2019-04-11T14:57:04.324Z,14.70
2019-04-11T14:59:40.841Z,14.80
2019-04-11T15:02:14.415Z,14.60
2019-04-11T15:04:57.549Z,14.60
2019-04-11T15:07:26.851Z,14.60
2019-04-11T15:10:14.700Z,14.60
2019-04-11T15:12:50.974Z,14.90
2019-04-11T15:15:57.056Z,15.00
2019-04-11T15:18:27.020Z,15.00
2019-04-11T15:21:16.641Z,14.80
2019-04-11T15:23:48.439Z,15.00
2019-04-11T15:26:45.121Z,15.10
2019-04-11T15:29:19.005Z,15.00
2019-04-11T15:32:01.975Z,15.00
2019-04-11T15:34:48.973Z,15.00
2019-04-11T15:37:43.197Z,14.80
2019-04-11T15:40:17.986Z,15.00
2019-04-11T15:43:05.161Z,14.90
2019-04-11T15:45:49.258Z,14.40
2019-04-11T15:48:36.676Z,14.60
2019-04-11T15:51:23.389Z,14.60
2019-04-11T15:54:11.521Z,14.40
2019-04-11T15:56:48.549Z,14.50
2019-04-11T15:59:29.972Z,14.40
2019-04-11T16:02:17.333Z,14.00
2019-04-11T16:05:08.714Z,14.10
2019-04-11T16:07:55.385Z,14.20
2019-04-11T16:10:24.753Z,14.30
2019-04-11T16:13:00.569Z,14.40
2019-04-11T16:15:32.644Z,14.30
2019-04-11T16:18:33.156Z,14.00
2019-04-11T16:21:05.126Z,13.80
2019-04-11T16:23:41.986Z,13.80
2019-04-11T16:26:14.449Z,13.80
2019-04-11T16:29:14.642Z,13.80
2019-04-11T16:31:43.565Z,13.80
2019-04-11T16:34:24.182Z,14.00
2019-04-11T16:36:55.825Z,14.10
2019-04-11T16:39:52.154Z,13.80
2019-04-11T16:42:26.691Z,13.70
2019-04-11T16:45:10.719Z,13.80
2019-04-11T16:47:44.219Z,13.70
2019-04-11T16:50:13.536Z,13.70
2019-04-11T16:52:42.854Z,13.70
2019-04-11T16:55:11.823Z,13.70
2019-04-11T16:57:43.875Z,13.50
2019-04-11T17:00:12.638Z,13.40
2019-04-11T17:02:41.497Z,13.30
2019-04-11T17:05:10.732Z,13.40
2019-04-11T17:07:58.823Z,13.20
2019-04-11T17:10:45.924Z,13.00
2019-04-11T17:13:14.961Z,12.80
2019-04-11T17:15:43.869Z,12.90
2019-04-11T17:18:12.779Z,13.00
2019-04-11T17:20:41.745Z,13.10
2019-04-11T17:23:11.010Z,13.10
2019-04-11T17:25:41.701Z,13.00
2019-04-11T17:28:10.991Z,12.80
2019-04-11T17:30:40.424Z,12.60
2019-04-11T17:33:09.396Z,12.60
2019-04-11T17:35:38.454Z,12.70
2019-04-11T17:38:08.102Z,12.80
2019-04-11T17:40:39.505Z,12.80
2019-04-11T17:43:08.380Z,12.80
2019-04-11T17:45:37.439Z,12.70
2019-04-11T17:48:06.296Z,12.60
2019-04-11T17:50:35.568Z,12.60
2019-04-11T17:53:04.684Z,12.50
2019-04-11T17:55:33.698Z,12.30
2019-04-11T17:58:02.638Z,12.20
2019-04-11T18:00:35.119Z,12.00
2019-04-11T18:03:04.472Z,12.00
2019-04-11T18:05:33.709Z,12.00
2019-04-11T18:08:02.993Z,11.90
2019-04-11T18:10:32.411Z,12.00
2019-04-11T18:13:01.428Z,11.80
2019-04-11T18:15:31.168Z,11.60
2019-04-11T18:18:03.099Z,11.50
2019-04-11T18:20:32.453Z,11.50
2019-04-11T18:23:01.449Z,11.40
2019-04-11T18:25:30.381Z,11.50
2019-04-11T18:27:59.390Z,11.30
2019-04-11T18:30:28.440Z,11.30
2019-04-11T18:32:57.378Z,11.30
2019-04-11T18:35:26.426Z,11.30
2019-04-11T18:37:55.488Z,11.20
2019-04-11T18:40:24.786Z,11.20
2019-04-11T18:42:53.920Z,11.30
2019-04-11T18:45:23.075Z,11.10
2019-04-11T18:47:52.240Z,11.00
2019-04-11T18:50:22.928Z,11.00
2019-04-11T18:52:51.959Z,10.90
2019-04-11T18:55:20.965Z,10.90
2019-04-11T18:57:49.979Z,10.90
2019-04-11T19:00:21.594Z,10.90
2019-04-11T19:02:50.704Z,10.80
2019-04-11T19:05:28.474Z,10.80
2019-04-11T19:07:50.737Z,10.70
2019-04-11T19:10:19.893Z,10.60
2019-04-11T19:12:50.074Z,10.50
2019-04-11T19:15:19.475Z,10.50
2019-04-11T19:17:48.460Z,10.50
2019-04-11T19:20:19.241Z,10.50
2019-04-11T19:22:48.435Z,10.30
2019-04-11T19:25:17.751Z,10.20
2019-04-11T19:27:50.074Z,10.30
2019-04-11T19:30:17.440Z,10.40
2019-04-11T19:32:46.455Z,10.30
2019-04-11T19:35:15.559Z,10.30
2019-04-11T19:37:44.509Z,10.30
2019-04-11T19:40:16.367Z,10.20
2019-04-11T19:42:48.885Z,10.10
2019-04-11T19:45:19.574Z,10.00
2019-04-11T19:47:51.448Z,10.00
2019-04-11T19:50:19.808Z,9.90
2019-04-11T19:52:48.859Z,9.90
2019-04-11T19:55:52.509Z,9.90
2019-04-11T19:58:24.049Z,9.80
2019-04-11T20:00:53.964Z,9.70
2019-04-11T20:03:24.169Z,9.70
2019-04-11T20:05:53.776Z,9.70
2019-04-11T20:08:24.561Z,9.70
2019-04-11T20:10:53.561Z,9.80
2019-04-11T20:13:23.971Z,9.70
2019-04-11T20:15:54.812Z,9.70
2019-04-11T20:18:24.388Z,9.60
2019-04-11T20:20:55.193Z,9.50
2019-04-11T20:23:24.154Z,9.60
2019-04-11T20:25:53.126Z,9.70
2019-04-11T20:28:23.301Z,9.70
2019-04-11T20:36:11.355Z,9.60
2019-04-11T20:38:40.492Z,9.50
2019-04-11T20:41:09.367Z,9.40
2019-04-11T20:43:38.215Z,9.30
2019-04-11T20:46:07.137Z,9.40
2019-04-11T20:48:36.013Z,9.30
2019-04-11T20:51:05.039Z,9.20
2019-04-11T20:53:36.589Z,9.00
2019-04-11T20:56:05.011Z,8.90
2019-04-11T20:58:33.965Z,9.00
2019-04-11T21:01:03.618Z,9.00
2019-04-11T21:03:32.515Z,9.00
2019-04-11T21:06:01.981Z,9.00
2019-04-11T21:08:33.197Z,9.00
2019-04-11T21:11:04.533Z,8.90
2019-04-11T21:13:33.257Z,9.00
2019-04-11T21:16:02.776Z,9.00
2019-04-11T21:18:31.797Z,9.10
2019-04-11T21:21:00.698Z,9.00
2019-04-11T21:23:30.256Z,9.00
2019-04-11T21:25:59.698Z,9.00
2019-04-11T21:28:30.348Z,9.00
2019-04-11T21:31:00.671Z,9.00
2019-04-11T21:33:34.230Z,8.90
2019-04-11T21:36:01.436Z,8.80
2019-04-11T21:38:32.102Z,8.80
2019-04-11T21:41:01.145Z,8.80
2019-04-11T21:43:30.085Z,8.80
2019-04-11T21:45:59.116Z,8.80
2019-04-11T21:48:28.107Z,8.80
2019-04-11T21:50:57.014Z,8.80
2019-04-11T21:53:36.174Z,8.80
2019-04-11T21:55:56.553Z,8.70
2019-04-11T21:58:25.791Z,8.80
2019-04-11T22:01:04.186Z,8.80
2019-04-11T22:03:33.349Z,8.70
2019-04-11T22:06:02.679Z,8.70
2019-04-11T22:08:31.963Z,8.70
2019-04-11T22:11:03.158Z,8.70
2019-04-11T22:13:32.381Z,8.70
2019-04-11T22:16:01.857Z,8.70
2019-04-11T22:18:31.128Z,8.70
2019-04-11T22:21:00.542Z,8.70
2019-04-11T22:23:29.425Z,8.60
2019-04-11T22:25:58.554Z,8.60
2019-04-11T22:28:27.545Z,8.40
2019-04-11T22:30:56.559Z,8.40
2019-04-11T22:33:30.171Z,8.40
2019-04-11T22:35:59.437Z,8.40
2019-04-11T22:38:31.047Z,8.40
2019-04-11T22:41:01.978Z,8.40
2019-04-11T22:43:30.804Z,8.50
2019-04-11T22:45:59.894Z,8.40
2019-04-11T22:48:28.791Z,8.40
2019-04-11T22:50:57.795Z,8.50
2019-04-11T22:53:26.963Z,8.40
2019-04-11T22:55:55.796Z,8.40
2019-04-11T22:58:24.647Z,8.30
2019-04-11T23:00:53.635Z,8.40
2019-04-11T23:03:32.911Z,8.40
2019-04-11T23:06:02.514Z,8.30
2019-04-11T23:08:31.441Z,8.40
2019-04-11T23:11:00.281Z,8.40
2019-04-11T23:13:29.131Z,8.40
2019-04-11T23:15:57.998Z,8.30
2019-04-11T23:18:26.953Z,8.40
2019-04-11T23:20:56.031Z,8.40
2019-04-11T23:23:25.144Z,8.40
2019-04-11T23:25:53.951Z,8.40
2019-04-11T23:28:23.168Z,8.50
2019-04-11T23:30:51.989Z,8.50
2019-04-11T23:33:21.951Z,8.50
2019-04-11T23:35:51.720Z,8.50
2019-04-11T23:38:23.618Z,8.50
2019-04-11T23:40:51.886Z,8.50
2019-04-11T23:43:20.735Z,8.60
2019-04-11T23:45:51.136Z,8.70
2019-04-11T23:48:23.746Z,8.80
2019-04-11T23:50:54.875Z,8.80
2019-04-11T23:53:22.073Z,8.90
2019-04-11T23:55:51.048Z,8.80
2019-04-11T23:58:20.123Z,8.90
